sensor_id;sensor_type;location;lat;lon;timestamp;P1;durP1;ratioP1;P2;durP2;ratioP2
6207;SDS011;3137;51.550;7.060;2022-11-20T00:03:42;33.40;;;19.40;;
6207;SDS011;3137;51.550;7.060;2022-11-20T00:06:10;35.00;;;20.30;;
6207;SDS011;3137;51.550;7.060;2022-11-20T00:08:38;31.60;;;19.67;;
6207;SDS011;3137;51.550;7.060;2022-11-20T00:11:05;34.37;;;19.10;;
6207;SDS011;3137;51.550;7.060;2022-11-20T00:13:41;37.23;;;18.97;;
6207;SDS011;3137;51.550;7.060;2022-11-20T00:16:14;38.23;;;19.73;;
6207;SDS011;3137;51.550;7.060;2022-11-20T00:18:42;32.73;;;19.10;;
6207;SDS011;3137;51.550;7.060;2022-11-20T00:21:12;32.23;;;19.80;;
6207;SDS011;3137;51.550;7.060;2022-11-20T00:23:49;32.20;;;19.10;;
6207;SDS011;3137;51.550;7.060;2022-11-20T00:26:20;33.47;;;18.83;;
6207;SDS011;3137;51.550;7.060;2022-11-20T00:28:52;29.73;;;19.17;;
6207;SDS011;3137;51.550;7.060;2022-11-20T00:31:24;36.97;;;20.13;;
6207;SDS011;3137;51.550;7.060;2022-11-20T00:33:51;38.33;;;21.23;;
6207;SDS011;3137;51.550;7.060;2022-11-20T00:36:18;31.57;;;18.80;;
6207;SDS011;3137;51.550;7.060;2022-11-20T00:38:46;26.20;;;18.37;;
6207;SDS011;3137;51.550;7.060;2022-11-20T00:41:14;33.67;;;19.60;;
6207;SDS011;3137;51.550;7.060;2022-11-20T00:43:41;31.93;;;19.87;;
6207;SDS011;3137;51.550;7.060;2022-11-20T00:46:09;38.97;;;19.80;;
6207;SDS011;3137;51.550;7.060;2022-11-20T00:48:38;35.57;;;18.97;;
6207;SDS011;3137;51.550;7.060;2022-11-20T00:51:05;31.90;;;18.93;;
6207;SDS011;3137;51.550;7.060;2022-11-20T00:53:32;27.60;;;18.47;;
6207;SDS011;3137;51.550;7.060;2022-11-20T00:56:02;29.03;;;19.10;;
6207;SDS011;3137;51.550;7.060;2022-11-20T00:58:32;35.83;;;20.40;;
6207;SDS011;3137;51.550;7.060;2022-11-20T01:01:04;29.53;;;18.93;;
6207;SDS011;3137;51.550;7.060;2022-11-20T01:03:36;33.53;;;20.37;;
6207;SDS011;3137;51.550;7.060;2022-11-20T01:06:10;30.60;;;19.40;;
6207;SDS011;3137;51.550;7.060;2022-11-20T01:08:47;27.17;;;17.83;;
6207;SDS011;3137;51.550;7.060;2022-11-20T01:11:16;38.53;;;20.57;;
6207;SDS011;3137;51.550;7.060;2022-11-20T01:13:44;33.27;;;20.37;;
6207;SDS011;3137;51.550;7.060;2022-11-20T01:16:13;35.10;;;18.93;;
6207;SDS011;3137;51.550;7.060;2022-11-20T01:18:40;29.10;;;18.60;;
6207;SDS011;3137;51.550;7.060;2022-11-20T01:21:10;41.87;;;19.60;;
6207;SDS011;3137;51.550;7.060;2022-11-20T01:23:39;28.00;;;18.60;;
6207;SDS011;3137;51.550;7.060;2022-11-20T01:26:07;34.40;;;19.97;;
6207;SDS011;3137;51.550;7.060;2022-11-20T01:28:36;31.37;;;20.47;;
6207;SDS011;3137;51.550;7.060;2022-11-20T01:31:10;32.47;;;18.97;;
6207;SDS011;3137;51.550;7.060;2022-11-20T01:33:41;32.20;;;20.50;;
6207;SDS011;3137;51.550;7.060;2022-11-20T01:36:09;30.57;;;19.17;;
6207;SDS011;3137;51.550;7.060;2022-11-20T01:38:36;33.17;;;20.40;;
6207;SDS011;3137;51.550;7.060;2022-11-20T01:41:02;35.87;;;19.63;;
6207;SDS011;3137;51.550;7.060;2022-11-20T01:43:29;34.43;;;20.07;;
6207;SDS011;3137;51.550;7.060;2022-11-20T01:46:00;33.93;;;20.40;;
6207;SDS011;3137;51.550;7.060;2022-11-20T01:49:11;43.23;;;20.47;;
6207;SDS011;3137;51.550;7.060;2022-11-20T01:51:49;40.63;;;21.17;;
6207;SDS011;3137;51.550;7.060;2022-11-20T01:54:19;36.87;;;19.77;;
6207;SDS011;3137;51.550;7.060;2022-11-20T01:56:51;29.07;;;20.40;;
6207;SDS011;3137;51.550;7.060;2022-11-20T01:59:21;34.23;;;19.67;;
6207;SDS011;3137;51.550;7.060;2022-11-20T02:01:49;40.53;;;20.73;;
6207;SDS011;3137;51.550;7.060;2022-11-20T02:04:16;31.27;;;19.50;;
6207;SDS011;3137;51.550;7.060;2022-11-20T02:06:46;35.17;;;19.33;;
6207;SDS011;3137;51.550;7.060;2022-11-20T02:09:15;42.93;;;20.77;;
6207;SDS011;3137;51.550;7.060;2022-11-20T02:11:42;35.63;;;20.50;;
6207;SDS011;3137;51.550;7.060;2022-11-20T02:14:08;27.20;;;18.17;;
6207;SDS011;3137;51.550;7.060;2022-11-20T02:16:39;29.27;;;19.47;;
6207;SDS011;3137;51.550;7.060;2022-11-20T02:19:13;25.23;;;17.20;;
6207;SDS011;3137;51.550;7.060;2022-11-20T02:24:39;32.23;;;18.53;;
6207;SDS011;3137;51.550;7.060;2022-11-20T02:27:09;34.43;;;19.40;;
6207;SDS011;3137;51.550;7.060;2022-11-20T02:29:39;31.17;;;21.37;;
6207;SDS011;3137;51.550;7.060;2022-11-20T02:32:18;31.90;;;20.37;;
6207;SDS011;3137;51.550;7.060;2022-11-20T02:34:50;36.57;;;19.33;;
6207;SDS011;3137;51.550;7.060;2022-11-20T02:37:16;31.20;;;19.23;;
6207;SDS011;3137;51.550;7.060;2022-11-20T02:39:44;35.27;;;20.37;;
6207;SDS011;3137;51.550;7.060;2022-11-20T02:42:12;30.67;;;18.93;;
6207;SDS011;3137;51.550;7.060;2022-11-20T02:44:39;34.03;;;18.40;;
6207;SDS011;3137;51.550;7.060;2022-11-20T02:47:06;33.83;;;20.43;;
6207;SDS011;3137;51.550;7.060;2022-11-20T02:49:32;29.73;;;18.03;;
6207;SDS011;3137;51.550;7.060;2022-11-20T02:51:59;31.23;;;19.03;;
6207;SDS011;3137;51.550;7.060;2022-11-20T02:54:25;37.03;;;21.00;;
6207;SDS011;3137;51.550;7.060;2022-11-20T02:56:52;25.70;;;17.77;;
6207;SDS011;3137;51.550;7.060;2022-11-20T02:59:19;32.83;;;20.37;;
6207;SDS011;3137;51.550;7.060;2022-11-20T03:01:46;32.17;;;19.50;;
6207;SDS011;3137;51.550;7.060;2022-11-20T03:04:12;33.37;;;19.17;;
6207;SDS011;3137;51.550;7.060;2022-11-20T03:06:38;29.83;;;18.83;;
6207;SDS011;3137;51.550;7.060;2022-11-20T03:09:05;29.47;;;18.83;;
6207;SDS011;3137;51.550;7.060;2022-11-20T03:11:31;31.17;;;18.53;;
6207;SDS011;3137;51.550;7.060;2022-11-20T03:13:57;25.83;;;18.10;;
6207;SDS011;3137;51.550;7.060;2022-11-20T03:16:28;28.97;;;17.53;;
6207;SDS011;3137;51.550;7.060;2022-11-20T03:18:54;27.33;;;17.90;;
6207;SDS011;3137;51.550;7.060;2022-11-20T03:21:20;29.17;;;18.63;;
6207;SDS011;3137;51.550;7.060;2022-11-20T03:23:47;29.73;;;19.07;;
6207;SDS011;3137;51.550;7.060;2022-11-20T03:26:15;27.67;;;19.00;;
6207;SDS011;3137;51.550;7.060;2022-11-20T03:28:46;29.33;;;19.00;;
6207;SDS011;3137;51.550;7.060;2022-11-20T03:31:15;35.93;;;20.33;;
6207;SDS011;3137;51.550;7.060;2022-11-20T03:33:43;31.57;;;19.63;;
6207;SDS011;3137;51.550;7.060;2022-11-20T03:36:11;33.07;;;20.27;;
6207;SDS011;3137;51.550;7.060;2022-11-20T03:38:39;37.93;;;20.37;;
6207;SDS011;3137;51.550;7.060;2022-11-20T03:41:17;31.60;;;19.23;;
6207;SDS011;3137;51.550;7.060;2022-11-20T03:43:49;31.50;;;19.20;;
6207;SDS011;3137;51.550;7.060;2022-11-20T03:46:16;30.37;;;18.90;;
6207;SDS011;3137;51.550;7.060;2022-11-20T03:48:43;32.63;;;18.93;;
6207;SDS011;3137;51.550;7.060;2022-11-20T03:51:17;31.43;;;18.83;;
6207;SDS011;3137;51.550;7.060;2022-11-20T03:53:46;33.23;;;20.77;;
6207;SDS011;3137;51.550;7.060;2022-11-20T03:56:15;39.30;;;20.60;;
6207;SDS011;3137;51.550;7.060;2022-11-20T03:58:43;28.57;;;19.37;;
6207;SDS011;3137;51.550;7.060;2022-11-20T04:01:16;28.23;;;19.50;;
6207;SDS011;3137;51.550;7.060;2022-11-20T04:03:45;31.63;;;19.33;;
6207;SDS011;3137;51.550;7.060;2022-11-20T04:06:19;37.20;;;20.30;;
6207;SDS011;3137;51.550;7.060;2022-11-20T04:08:50;44.43;;;20.43;;
6207;SDS011;3137;51.550;7.060;2022-11-20T04:11:20;31.23;;;20.17;;
6207;SDS011;3137;51.550;7.060;2022-11-20T04:13:50;36.67;;;19.90;;
6207;SDS011;3137;51.550;7.060;2022-11-20T04:16:21;30.43;;;18.37;;
6207;SDS011;3137;51.550;7.060;2022-11-20T04:18:52;36.57;;;19.63;;
6207;SDS011;3137;51.550;7.060;2022-11-20T04:21:23;35.90;;;20.83;;
6207;SDS011;3137;51.550;7.060;2022-11-20T04:23:51;33.37;;;18.43;;
6207;SDS011;3137;51.550;7.060;2022-11-20T04:26:19;34.33;;;20.10;;
6207;SDS011;3137;51.550;7.060;2022-11-20T04:28:46;30.07;;;19.37;;
6207;SDS011;3137;51.550;7.060;2022-11-20T04:31:13;37.17;;;23.00;;
6207;SDS011;3137;51.550;7.060;2022-11-20T04:33:44;39.40;;;20.67;;
6207;SDS011;3137;51.550;7.060;2022-11-20T04:36:20;34.13;;;20.67;;
6207;SDS011;3137;51.550;7.060;2022-11-20T04:38:52;34.67;;;21.67;;
6207;SDS011;3137;51.550;7.060;2022-11-20T04:41:23;39.53;;;23.40;;
6207;SDS011;3137;51.550;7.060;2022-11-20T04:43:52;34.27;;;21.97;;
6207;SDS011;3137;51.550;7.060;2022-11-20T04:46:25;37.30;;;21.03;;
6207;SDS011;3137;51.550;7.060;2022-11-20T04:48:53;36.60;;;20.70;;
6207;SDS011;3137;51.550;7.060;2022-11-20T04:51:19;32.80;;;21.33;;
6207;SDS011;3137;51.550;7.060;2022-11-20T04:53:45;33.10;;;20.23;;
6207;SDS011;3137;51.550;7.060;2022-11-20T04:56:12;27.87;;;20.27;;
6207;SDS011;3137;51.550;7.060;2022-11-20T04:58:39;33.53;;;20.57;;
6207;SDS011;3137;51.550;7.060;2022-11-20T05:01:10;32.90;;;20.90;;
6207;SDS011;3137;51.550;7.060;2022-11-20T05:03:39;30.97;;;18.80;;
6207;SDS011;3137;51.550;7.060;2022-11-20T05:06:08;38.03;;;21.77;;
6207;SDS011;3137;51.550;7.060;2022-11-20T05:08:35;32.37;;;21.00;;
6207;SDS011;3137;51.550;7.060;2022-11-20T05:11:03;31.23;;;19.57;;
6207;SDS011;3137;51.550;7.060;2022-11-20T05:13:31;34.03;;;19.87;;
6207;SDS011;3137;51.550;7.060;2022-11-20T05:16:08;40.43;;;21.60;;
6207;SDS011;3137;51.550;7.060;2022-11-20T05:18:40;38.03;;;20.00;;
6207;SDS011;3137;51.550;7.060;2022-11-20T05:21:07;28.80;;;19.67;;
6207;SDS011;3137;51.550;7.060;2022-11-20T05:23:35;48.43;;;23.03;;
6207;SDS011;3137;51.550;7.060;2022-11-20T05:26:02;36.83;;;21.70;;
6207;SDS011;3137;51.550;7.060;2022-11-20T05:28:29;33.93;;;20.57;;
6207;SDS011;3137;51.550;7.060;2022-11-20T05:31:03;34.93;;;20.63;;
6207;SDS011;3137;51.550;7.060;2022-11-20T05:33:34;34.00;;;21.77;;
6207;SDS011;3137;51.550;7.060;2022-11-20T05:36:05;34.80;;;19.53;;
6207;SDS011;3137;51.550;7.060;2022-11-20T05:38:32;31.43;;;20.03;;
6207;SDS011;3137;51.550;7.060;2022-11-20T05:43:36;31.83;;;21.10;;
6207;SDS011;3137;51.550;7.060;2022-11-20T05:46:04;30.33;;;19.93;;
6207;SDS011;3137;51.550;7.060;2022-11-20T05:48:32;37.97;;;21.07;;
6207;SDS011;3137;51.550;7.060;2022-11-20T05:50:59;31.53;;;20.70;;
6207;SDS011;3137;51.550;7.060;2022-11-20T05:53:27;40.27;;;22.93;;
6207;SDS011;3137;51.550;7.060;2022-11-20T05:56:00;34.33;;;21.60;;
6207;SDS011;3137;51.550;7.060;2022-11-20T05:58:27;42.23;;;21.47;;
6207;SDS011;3137;51.550;7.060;2022-11-20T06:00:54;37.33;;;21.13;;
6207;SDS011;3137;51.550;7.060;2022-11-20T06:03:21;33.93;;;22.40;;
6207;SDS011;3137;51.550;7.060;2022-11-20T06:05:47;39.07;;;22.43;;
6207;SDS011;3137;51.550;7.060;2022-11-20T06:08:13;33.73;;;22.00;;
6207;SDS011;3137;51.550;7.060;2022-11-20T06:10:40;39.63;;;22.83;;
6207;SDS011;3137;51.550;7.060;2022-11-20T06:13:06;32.03;;;22.10;;
6207;SDS011;3137;51.550;7.060;2022-11-20T06:15:32;39.23;;;22.20;;
6207;SDS011;3137;51.550;7.060;2022-11-20T06:17:59;42.23;;;21.13;;
6207;SDS011;3137;51.550;7.060;2022-11-20T06:20:25;43.73;;;23.10;;
6207;SDS011;3137;51.550;7.060;2022-11-20T06:22:51;41.03;;;22.50;;
6207;SDS011;3137;51.550;7.060;2022-11-20T06:25:18;31.00;;;19.53;;
6207;SDS011;3137;51.550;7.060;2022-11-20T06:27:44;37.17;;;22.40;;
6207;SDS011;3137;51.550;7.060;2022-11-20T06:30:10;40.93;;;22.20;;
6207;SDS011;3137;51.550;7.060;2022-11-20T06:32:37;38.10;;;23.63;;
6207;SDS011;3137;51.550;7.060;2022-11-20T06:35:04;40.60;;;22.00;;
6207;SDS011;3137;51.550;7.060;2022-11-20T06:37:30;35.63;;;22.73;;
6207;SDS011;3137;51.550;7.060;2022-11-20T06:39:57;36.30;;;22.00;;
6207;SDS011;3137;51.550;7.060;2022-11-20T06:42:23;41.50;;;23.73;;
6207;SDS011;3137;51.550;7.060;2022-11-20T06:44:49;44.73;;;24.93;;
6207;SDS011;3137;51.550;7.060;2022-11-20T06:47:16;38.07;;;23.60;;
6207;SDS011;3137;51.550;7.060;2022-11-20T06:49:42;36.43;;;21.43;;
6207;SDS011;3137;51.550;7.060;2022-11-20T06:52:08;35.90;;;21.37;;
6207;SDS011;3137;51.550;7.060;2022-11-20T06:54:35;36.27;;;20.30;;
6207;SDS011;3137;51.550;7.060;2022-11-20T06:57:01;36.20;;;20.70;;
6207;SDS011;3137;51.550;7.060;2022-11-20T06:59:27;41.00;;;23.10;;
6207;SDS011;3137;51.550;7.060;2022-11-20T07:01:54;39.20;;;22.47;;
6207;SDS011;3137;51.550;7.060;2022-11-20T07:04:20;42.60;;;24.03;;
6207;SDS011;3137;51.550;7.060;2022-11-20T07:06:47;37.37;;;23.43;;
6207;SDS011;3137;51.550;7.060;2022-11-20T07:09:14;33.77;;;22.07;;
6207;SDS011;3137;51.550;7.060;2022-11-20T07:11:41;32.47;;;21.40;;
6207;SDS011;3137;51.550;7.060;2022-11-20T07:14:07;38.43;;;21.80;;
6207;SDS011;3137;51.550;7.060;2022-11-20T07:16:33;41.23;;;22.47;;
6207;SDS011;3137;51.550;7.060;2022-11-20T07:18:59;40.00;;;21.87;;
6207;SDS011;3137;51.550;7.060;2022-11-20T07:21:26;35.47;;;20.07;;
6207;SDS011;3137;51.550;7.060;2022-11-20T07:23:52;37.90;;;22.03;;
6207;SDS011;3137;51.550;7.060;2022-11-20T07:26:18;32.03;;;20.37;;
6207;SDS011;3137;51.550;7.060;2022-11-20T07:28:45;35.27;;;21.43;;
6207;SDS011;3137;51.550;7.060;2022-11-20T07:31:12;36.93;;;21.17;;
6207;SDS011;3137;51.550;7.060;2022-11-20T07:33:44;35.57;;;21.27;;
6207;SDS011;3137;51.550;7.060;2022-11-20T07:36:10;35.97;;;21.63;;
6207;SDS011;3137;51.550;7.060;2022-11-20T07:38:37;41.97;;;21.27;;
6207;SDS011;3137;51.550;7.060;2022-11-20T07:41:03;35.87;;;21.97;;
6207;SDS011;3137;51.550;7.060;2022-11-20T07:43:30;47.37;;;22.63;;
6207;SDS011;3137;51.550;7.060;2022-11-20T07:46:00;31.93;;;20.07;;
6207;SDS011;3137;51.550;7.060;2022-11-20T07:48:26;42.30;;;22.47;;
6207;SDS011;3137;51.550;7.060;2022-11-20T07:50:53;34.80;;;21.73;;
6207;SDS011;3137;51.550;7.060;2022-11-20T07:53:21;33.20;;;20.67;;
6207;SDS011;3137;51.550;7.060;2022-11-20T07:55:47;42.07;;;22.67;;
6207;SDS011;3137;51.550;7.060;2022-11-20T07:58:14;37.10;;;21.57;;
6207;SDS011;3137;51.550;7.060;2022-11-20T08:00:40;36.13;;;21.63;;
6207;SDS011;3137;51.550;7.060;2022-11-20T08:03:07;40.37;;;21.37;;
6207;SDS011;3137;51.550;7.060;2022-11-20T08:05:33;40.10;;;21.57;;
6207;SDS011;3137;51.550;7.060;2022-11-20T08:08:00;42.80;;;23.10;;
6207;SDS011;3137;51.550;7.060;2022-11-20T08:10:26;33.60;;;21.10;;
6207;SDS011;3137;51.550;7.060;2022-11-20T08:12:53;42.87;;;23.37;;
6207;SDS011;3137;51.550;7.060;2022-11-20T08:15:38;32.30;;;21.73;;
6207;SDS011;3137;51.550;7.060;2022-11-20T08:18:09;48.90;;;24.67;;
6207;SDS011;3137;51.550;7.060;2022-11-20T08:20:57;44.43;;;25.60;;
6207;SDS011;3137;51.550;7.060;2022-11-20T08:23:27;45.23;;;25.73;;
6207;SDS011;3137;51.550;7.060;2022-11-20T08:25:53;40.00;;;24.30;;
6207;SDS011;3137;51.550;7.060;2022-11-20T08:28:20;45.50;;;27.50;;
6207;SDS011;3137;51.550;7.060;2022-11-20T08:30:48;49.00;;;27.83;;
6207;SDS011;3137;51.550;7.060;2022-11-20T08:33:16;59.80;;;29.00;;
6207;SDS011;3137;51.550;7.060;2022-11-20T08:35:43;55.90;;;28.97;;
6207;SDS011;3137;51.550;7.060;2022-11-20T08:38:10;55.53;;;29.50;;
6207;SDS011;3137;51.550;7.060;2022-11-20T08:40:36;59.97;;;33.17;;
6207;SDS011;3137;51.550;7.060;2022-11-20T08:43:03;65.47;;;32.50;;
6207;SDS011;3137;51.550;7.060;2022-11-20T08:45:29;55.03;;;30.73;;
6207;SDS011;3137;51.550;7.060;2022-11-20T08:48:00;54.13;;;30.73;;
6207;SDS011;3137;51.550;7.060;2022-11-20T08:50:27;57.87;;;31.13;;
6207;SDS011;3137;51.550;7.060;2022-11-20T08:52:53;50.30;;;29.83;;
6207;SDS011;3137;51.550;7.060;2022-11-20T08:55:20;54.73;;;30.73;;
6207;SDS011;3137;51.550;7.060;2022-11-20T08:57:46;61.63;;;31.97;;
6207;SDS011;3137;51.550;7.060;2022-11-20T09:00:16;55.03;;;30.57;;
6207;SDS011;3137;51.550;7.060;2022-11-20T09:02:43;60.03;;;31.80;;
6207;SDS011;3137;51.550;7.060;2022-11-20T09:05:09;50.17;;;30.27;;
6207;SDS011;3137;51.550;7.060;2022-11-20T09:07:35;58.37;;;33.20;;
6207;SDS011;3137;51.550;7.060;2022-11-20T09:10:02;62.63;;;33.77;;
6207;SDS011;3137;51.550;7.060;2022-11-20T09:12:49;58.87;;;32.30;;
6207;SDS011;3137;51.550;7.060;2022-11-20T09:15:16;67.97;;;32.43;;
6207;SDS011;3137;51.550;7.060;2022-11-20T09:17:50;59.37;;;32.80;;
6207;SDS011;3137;51.550;7.060;2022-11-20T09:20:17;60.53;;;32.30;;
6207;SDS011;3137;51.550;7.060;2022-11-20T09:22:44;56.93;;;33.73;;
6207;SDS011;3137;51.550;7.060;2022-11-20T09:25:10;68.83;;;34.10;;
6207;SDS011;3137;51.550;7.060;2022-11-20T09:27:37;54.57;;;31.37;;
6207;SDS011;3137;51.550;7.060;2022-11-20T09:30:03;58.63;;;31.80;;
6207;SDS011;3137;51.550;7.060;2022-11-20T09:32:30;52.20;;;32.23;;
6207;SDS011;3137;51.550;7.060;2022-11-20T09:34:57;56.10;;;32.83;;
6207;SDS011;3137;51.550;7.060;2022-11-20T09:37:23;71.03;;;32.00;;
6207;SDS011;3137;51.550;7.060;2022-11-20T09:39:50;57.23;;;31.43;;
6207;SDS011;3137;51.550;7.060;2022-11-20T09:45:30;57.57;;;29.17;;
6207;SDS011;3137;51.550;7.060;2022-11-20T09:48:05;66.10;;;32.30;;
6207;SDS011;3137;51.550;7.060;2022-11-20T09:53:29;53.80;;;30.57;;
6207;SDS011;3137;51.550;7.060;2022-11-20T09:56:01;56.93;;;32.00;;
6207;SDS011;3137;51.550;7.060;2022-11-20T09:58:33;55.50;;;31.37;;
6207;SDS011;3137;51.550;7.060;2022-11-20T10:01:10;46.17;;;29.23;;
6207;SDS011;3137;51.550;7.060;2022-11-20T10:03:59;53.63;;;29.10;;
6207;SDS011;3137;51.550;7.060;2022-11-20T10:06:33;55.63;;;32.57;;
6207;SDS011;3137;51.550;7.060;2022-11-20T10:09:25;57.27;;;31.70;;
6207;SDS011;3137;51.550;7.060;2022-11-20T10:12:24;61.83;;;30.63;;
6207;SDS011;3137;51.550;7.060;2022-11-20T10:15:10;57.90;;;30.23;;
6207;SDS011;3137;51.550;7.060;2022-11-20T10:17:53;53.30;;;31.73;;
6207;SDS011;3137;51.550;7.060;2022-11-20T10:20:42;46.63;;;29.33;;
6207;SDS011;3137;51.550;7.060;2022-11-20T10:23:19;60.53;;;30.53;;
6207;SDS011;3137;51.550;7.060;2022-11-20T10:26:05;47.43;;;29.43;;
6207;SDS011;3137;51.550;7.060;2022-11-20T10:28:56;46.17;;;27.57;;
6207;SDS011;3137;51.550;7.060;2022-11-20T10:31:42;44.97;;;27.87;;
6207;SDS011;3137;51.550;7.060;2022-11-20T10:34:17;45.17;;;26.63;;
6207;SDS011;3137;51.550;7.060;2022-11-20T10:37:33;39.57;;;25.50;;
6207;SDS011;3137;51.550;7.060;2022-11-20T10:42:57;35.47;;;23.03;;
6207;SDS011;3137;51.550;7.060;2022-11-20T10:45:38;35.47;;;23.73;;
6207;SDS011;3137;51.550;7.060;2022-11-20T10:48:22;38.23;;;23.47;;
6207;SDS011;3137;51.550;7.060;2022-11-20T10:51:02;41.97;;;25.00;;
6207;SDS011;3137;51.550;7.060;2022-11-20T10:53:42;42.67;;;25.33;;
6207;SDS011;3137;51.550;7.060;2022-11-20T10:56:31;42.27;;;25.97;;
6207;SDS011;3137;51.550;7.060;2022-11-20T11:02:41;43.30;;;26.33;;
6207;SDS011;3137;51.550;7.060;2022-11-20T11:08:00;47.03;;;24.77;;
6207;SDS011;3137;51.550;7.060;2022-11-20T11:13:01;43.53;;;26.27;;
6207;SDS011;3137;51.550;7.060;2022-11-20T11:18:04;47.73;;;27.77;;
6207;SDS011;3137;51.550;7.060;2022-11-20T11:20:31;40.40;;;26.70;;
6207;SDS011;3137;51.550;7.060;2022-11-20T11:22:58;46.77;;;27.20;;
6207;SDS011;3137;51.550;7.060;2022-11-20T11:28:01;41.07;;;25.80;;
6207;SDS011;3137;51.550;7.060;2022-11-20T11:30:29;43.50;;;26.77;;
6207;SDS011;3137;51.550;7.060;2022-11-20T11:33:09;42.33;;;25.27;;
6207;SDS011;3137;51.550;7.060;2022-11-20T11:35:44;38.40;;;25.20;;
6207;SDS011;3137;51.550;7.060;2022-11-20T11:38:19;38.53;;;24.83;;
6207;SDS011;3137;51.550;7.060;2022-11-20T11:40:53;38.70;;;25.10;;
6207;SDS011;3137;51.550;7.060;2022-11-20T11:43:29;42.63;;;24.10;;
6207;SDS011;3137;51.550;7.060;2022-11-20T11:49:00;38.00;;;24.53;;
6207;SDS011;3137;51.550;7.060;2022-11-20T11:51:47;39.27;;;23.67;;
6207;SDS011;3137;51.550;7.060;2022-11-20T11:54:25;40.67;;;24.37;;
6207;SDS011;3137;51.550;7.060;2022-11-20T11:56:58;37.63;;;24.07;;
6207;SDS011;3137;51.550;7.060;2022-11-20T12:02:27;41.63;;;25.40;;
6207;SDS011;3137;51.550;7.060;2022-11-20T12:05:00;38.83;;;24.13;;
6207;SDS011;3137;51.550;7.060;2022-11-20T12:07:37;37.73;;;24.37;;
6207;SDS011;3137;51.550;7.060;2022-11-20T12:10:14;46.50;;;23.90;;
6207;SDS011;3137;51.550;7.060;2022-11-20T12:12:45;45.17;;;25.03;;
6207;SDS011;3137;51.550;7.060;2022-11-20T12:15:25;46.97;;;24.00;;
6207;SDS011;3137;51.550;7.060;2022-11-20T12:17:56;39.10;;;23.37;;
6207;SDS011;3137;51.550;7.060;2022-11-20T12:20:24;37.93;;;23.80;;
6207;SDS011;3137;51.550;7.060;2022-11-20T12:25:43;38.63;;;23.77;;
6207;SDS011;3137;51.550;7.060;2022-11-20T12:28:21;43.67;;;25.73;;
6207;SDS011;3137;51.550;7.060;2022-11-20T12:33:45;38.83;;;22.90;;
6207;SDS011;3137;51.550;7.060;2022-11-20T12:38:59;37.37;;;21.87;;
6207;SDS011;3137;51.550;7.060;2022-11-20T12:50:49;32.03;;;19.87;;
6207;SDS011;3137;51.550;7.060;2022-11-20T12:53:49;30.93;;;20.43;;
6207;SDS011;3137;51.550;7.060;2022-11-20T12:59:51;29.63;;;18.10;;
6207;SDS011;3137;51.550;7.060;2022-11-20T13:05:59;34.73;;;19.67;;
6207;SDS011;3137;51.550;7.060;2022-11-20T13:08:36;60.93;;;31.83;;
6207;SDS011;3137;51.550;7.060;2022-11-20T13:11:16;28.93;;;18.80;;
6207;SDS011;3137;51.550;7.060;2022-11-20T13:18:55;26.33;;;17.60;;
6207;SDS011;3137;51.550;7.060;2022-11-20T13:21:23;25.23;;;17.73;;
6207;SDS011;3137;51.550;7.060;2022-11-20T13:24:05;25.43;;;16.23;;
6207;SDS011;3137;51.550;7.060;2022-11-20T13:26:33;23.70;;;14.90;;
6207;SDS011;3137;51.550;7.060;2022-11-20T13:29:10;21.93;;;15.50;;
6207;SDS011;3137;51.550;7.060;2022-11-20T13:31:43;18.70;;;15.00;;
6207;SDS011;3137;51.550;7.060;2022-11-20T13:34:12;20.80;;;15.40;;
6207;SDS011;3137;51.550;7.060;2022-11-20T13:36:50;22.57;;;16.03;;
6207;SDS011;3137;51.550;7.060;2022-11-20T13:39:35;21.07;;;15.13;;
6207;SDS011;3137;51.550;7.060;2022-11-20T13:42:18;18.07;;;14.20;;
6207;SDS011;3137;51.550;7.060;2022-11-20T13:44:55;21.30;;;15.67;;
6207;SDS011;3137;51.550;7.060;2022-11-20T13:47:28;22.37;;;14.97;;
6207;SDS011;3137;51.550;7.060;2022-11-20T13:49:55;22.93;;;15.43;;
6207;SDS011;3137;51.550;7.060;2022-11-20T14:00:30;21.73;;;15.33;;
6207;SDS011;3137;51.550;7.060;2022-11-20T14:05:36;22.27;;;16.57;;
6207;SDS011;3137;51.550;7.060;2022-11-20T14:08:05;28.93;;;15.87;;
6207;SDS011;3137;51.550;7.060;2022-11-20T14:10:36;31.83;;;18.27;;
6207;SDS011;3137;51.550;7.060;2022-11-20T14:13:26;23.30;;;15.77;;
6207;SDS011;3137;51.550;7.060;2022-11-20T14:15:56;22.63;;;15.77;;
6207;SDS011;3137;51.550;7.060;2022-11-20T14:18:25;24.13;;;16.27;;
6207;SDS011;3137;51.550;7.060;2022-11-20T14:20:52;22.80;;;15.43;;
6207;SDS011;3137;51.550;7.060;2022-11-20T14:23:26;20.97;;;15.80;;
6207;SDS011;3137;51.550;7.060;2022-11-20T14:25:55;22.47;;;15.53;;
6207;SDS011;3137;51.550;7.060;2022-11-20T14:28:26;25.17;;;16.37;;
6207;SDS011;3137;51.550;7.060;2022-11-20T14:30:54;27.07;;;16.63;;
6207;SDS011;3137;51.550;7.060;2022-11-20T14:33:22;24.80;;;16.77;;
6207;SDS011;3137;51.550;7.060;2022-11-20T14:35:52;31.93;;;16.03;;
6207;SDS011;3137;51.550;7.060;2022-11-20T14:38:27;26.67;;;17.53;;
6207;SDS011;3137;51.550;7.060;2022-11-20T14:41:05;24.40;;;17.37;;
6207;SDS011;3137;51.550;7.060;2022-11-20T14:43:32;18.70;;;15.67;;
6207;SDS011;3137;51.550;7.060;2022-11-20T14:46:02;23.67;;;16.53;;
6207;SDS011;3137;51.550;7.060;2022-11-20T14:48:32;23.80;;;15.77;;
6207;SDS011;3137;51.550;7.060;2022-11-20T14:51:08;25.23;;;17.60;;
6207;SDS011;3137;51.550;7.060;2022-11-20T14:53:36;28.50;;;15.97;;
6207;SDS011;3137;51.550;7.060;2022-11-20T14:56:03;23.43;;;16.47;;
6207;SDS011;3137;51.550;7.060;2022-11-20T14:58:30;26.80;;;16.93;;
6207;SDS011;3137;51.550;7.060;2022-11-20T15:01:00;26.27;;;17.53;;
6207;SDS011;3137;51.550;7.060;2022-11-20T15:03:32;26.53;;;17.37;;
6207;SDS011;3137;51.550;7.060;2022-11-20T15:06:01;27.17;;;17.77;;
6207;SDS011;3137;51.550;7.060;2022-11-20T15:08:28;31.33;;;17.63;;
6207;SDS011;3137;51.550;7.060;2022-11-20T15:10:54;25.83;;;16.97;;
6207;SDS011;3137;51.550;7.060;2022-11-20T15:13:29;31.33;;;18.37;;
6207;SDS011;3137;51.550;7.060;2022-11-20T15:15:58;33.13;;;18.43;;
6207;SDS011;3137;51.550;7.060;2022-11-20T15:20:56;28.47;;;18.37;;
6207;SDS011;3137;51.550;7.060;2022-11-20T15:23:26;26.53;;;16.50;;
6207;SDS011;3137;51.550;7.060;2022-11-20T15:25:53;28.93;;;18.40;;
6207;SDS011;3137;51.550;7.060;2022-11-20T15:28:21;27.90;;;17.73;;
6207;SDS011;3137;51.550;7.060;2022-11-20T15:30:53;28.27;;;18.27;;
6207;SDS011;3137;51.550;7.060;2022-11-20T15:33:19;30.37;;;17.13;;
6207;SDS011;3137;51.550;7.060;2022-11-20T15:35:46;27.90;;;17.57;;
6207;SDS011;3137;51.550;7.060;2022-11-20T15:38:12;31.20;;;17.83;;
6207;SDS011;3137;51.550;7.060;2022-11-20T15:40:39;34.00;;;19.73;;
6207;SDS011;3137;51.550;7.060;2022-11-20T15:43:05;29.43;;;19.03;;
6207;SDS011;3137;51.550;7.060;2022-11-20T15:45:46;35.17;;;18.13;;
6207;SDS011;3137;51.550;7.060;2022-11-20T15:48:17;29.73;;;19.87;;
6207;SDS011;3137;51.550;7.060;2022-11-20T15:50:49;34.03;;;19.67;;
6207;SDS011;3137;51.550;7.060;2022-11-20T15:53:28;37.00;;;20.03;;
6207;SDS011;3137;51.550;7.060;2022-11-20T15:55:55;36.73;;;20.30;;
6207;SDS011;3137;51.550;7.060;2022-11-20T15:58:21;30.63;;;19.03;;
6207;SDS011;3137;51.550;7.060;2022-11-20T16:00:50;35.87;;;20.03;;
6207;SDS011;3137;51.550;7.060;2022-11-20T16:03:16;33.03;;;19.80;;
6207;SDS011;3137;51.550;7.060;2022-11-20T16:05:43;37.67;;;19.47;;
6207;SDS011;3137;51.550;7.060;2022-11-20T16:08:10;40.47;;;20.93;;
6207;SDS011;3137;51.550;7.060;2022-11-20T16:10:37;32.63;;;19.80;;
6207;SDS011;3137;51.550;7.060;2022-11-20T16:13:03;36.70;;;22.83;;
6207;SDS011;3137;51.550;7.060;2022-11-20T16:15:52;37.17;;;22.27;;
6207;SDS011;3137;51.550;7.060;2022-11-20T16:18:24;32.77;;;20.50;;
6207;SDS011;3137;51.550;7.060;2022-11-20T16:20:51;36.10;;;21.40;;
6207;SDS011;3137;51.550;7.060;2022-11-20T16:23:19;36.80;;;21.43;;
6207;SDS011;3137;51.550;7.060;2022-11-20T16:25:46;35.17;;;21.47;;
6207;SDS011;3137;51.550;7.060;2022-11-20T16:28:13;40.47;;;21.23;;